X  Close Metar Aviation Weather Data     ENRY Moss Airport, Rygge
Temperature
9°C Temperature
8°C Dewpoint
94% Humidity



Wind
4 M/S
8 MPH
13 KM/H
7 KTS



220°
SW
Current Conditions

Clear Clear
Pressure 1006.92 (hPa) - 29.73 (inHg)
Visibility 6.2 (mile) - 10 (km)
Airport
Airport-code ENRY

Location: Moss Airport, Rygge
Distance: 11 (km)

Metar:
ENRY 241150Z 22007KT CAVOK 09/08 Q1007 NOSIG

Time: 24-11-2020 12:50 CET